sensor_id;sensor_type;location;lat;lon;timestamp;P1;durP1;ratioP1;P2;durP2;ratioP2
64950;SDS011;51482;47.014;7.652;2024-03-08T00:00:18;16.33;;;13.63;;
64950;SDS011;51482;47.014;7.652;2024-03-08T00:02:47;16.67;;;13.20;;
64950;SDS011;51482;47.014;7.652;2024-03-08T00:05:15;15.37;;;12.33;;
64950;SDS011;51482;47.014;7.652;2024-03-08T00:07:41;16.37;;;13.17;;
64950;SDS011;51482;47.014;7.652;2024-03-08T00:10:08;18.60;;;13.87;;
64950;SDS011;51482;47.014;7.652;2024-03-08T00:12:36;18.80;;;14.07;;
64950;SDS011;51482;47.014;7.652;2024-03-08T00:15:02;16.90;;;13.40;;
64950;SDS011;51482;47.014;7.652;2024-03-08T00:17:28;17.40;;;13.07;;
64950;SDS011;51482;47.014;7.652;2024-03-08T00:19:54;17.37;;;13.50;;
64950;SDS011;51482;47.014;7.652;2024-03-08T00:22:19;18.03;;;12.80;;
64950;SDS011;51482;47.014;7.652;2024-03-08T00:24:47;17.27;;;13.90;;
64950;SDS011;51482;47.014;7.652;2024-03-08T00:27:14;20.70;;;14.53;;
64950;SDS011;51482;47.014;7.652;2024-03-08T00:29:40;19.43;;;14.30;;
64950;SDS011;51482;47.014;7.652;2024-03-08T00:32:06;18.80;;;13.90;;
64950;SDS011;51482;47.014;7.652;2024-03-08T00:34:34;26.30;;;15.80;;
64950;SDS011;51482;47.014;7.652;2024-03-08T00:37:01;24.33;;;15.90;;
64950;SDS011;51482;47.014;7.652;2024-03-08T00:39:27;25.33;;;15.43;;
64950;SDS011;51482;47.014;7.652;2024-03-08T00:41:53;21.87;;;15.50;;
64950;SDS011;51482;47.014;7.652;2024-03-08T00:44:18;16.93;;;13.83;;
64950;SDS011;51482;47.014;7.652;2024-03-08T00:46:44;19.53;;;14.73;;
64950;SDS011;51482;47.014;7.652;2024-03-08T00:49:09;17.37;;;13.10;;
64950;SDS011;51482;47.014;7.652;2024-03-08T00:51:35;17.67;;;13.77;;
64950;SDS011;51482;47.014;7.652;2024-03-08T00:54:01;18.13;;;13.67;;
64950;SDS011;51482;47.014;7.652;2024-03-08T00:56:26;15.47;;;12.83;;
64950;SDS011;51482;47.014;7.652;2024-03-08T00:58:52;20.63;;;14.67;;
64950;SDS011;51482;47.014;7.652;2024-03-08T01:01:18;23.00;;;15.40;;
64950;SDS011;51482;47.014;7.652;2024-03-08T01:03:44;19.43;;;14.63;;
64950;SDS011;51482;47.014;7.652;2024-03-08T01:06:10;18.60;;;13.60;;
64950;SDS011;51482;47.014;7.652;2024-03-08T01:08:36;25.60;;;15.00;;
64950;SDS011;51482;47.014;7.652;2024-03-08T01:11:03;16.10;;;12.47;;
64950;SDS011;51482;47.014;7.652;2024-03-08T01:13:29;16.87;;;13.03;;
64950;SDS011;51482;47.014;7.652;2024-03-08T01:15:55;19.30;;;14.23;;
64950;SDS011;51482;47.014;7.652;2024-03-08T01:18:21;16.13;;;11.73;;
64950;SDS011;51482;47.014;7.652;2024-03-08T01:20:47;15.80;;;12.37;;
64950;SDS011;51482;47.014;7.652;2024-03-08T01:23:12;18.03;;;13.70;;
64950;SDS011;51482;47.014;7.652;2024-03-08T01:25:38;18.40;;;14.03;;
64950;SDS011;51482;47.014;7.652;2024-03-08T01:28:04;16.87;;;14.10;;
64950;SDS011;51482;47.014;7.652;2024-03-08T01:30:30;21.10;;;14.33;;
64950;SDS011;51482;47.014;7.652;2024-03-08T01:32:57;21.07;;;14.67;;
64950;SDS011;51482;47.014;7.652;2024-03-08T01:35:23;18.93;;;14.07;;
64950;SDS011;51482;47.014;7.652;2024-03-08T01:37:49;24.43;;;14.40;;
64950;SDS011;51482;47.014;7.652;2024-03-08T01:40:15;16.60;;;10.30;;
64950;SDS011;51482;47.014;7.652;2024-03-08T01:42:41;31.20;;;11.00;;
64950;SDS011;51482;47.014;7.652;2024-03-08T01:45:07;24.00;;;9.87;;
64950;SDS011;51482;47.014;7.652;2024-03-08T01:47:33;17.83;;;9.83;;
64950;SDS011;51482;47.014;7.652;2024-03-08T01:50:00;12.33;;;9.03;;
64950;SDS011;51482;47.014;7.652;2024-03-08T01:52:28;16.43;;;9.90;;
64950;SDS011;51482;47.014;7.652;2024-03-08T01:54:56;11.37;;;8.20;;
64950;SDS011;51482;47.014;7.652;2024-03-08T01:57:25;16.73;;;8.60;;
64950;SDS011;51482;47.014;7.652;2024-03-08T01:59:52;13.67;;;9.00;;
64950;SDS011;51482;47.014;7.652;2024-03-08T02:02:20;11.80;;;9.10;;
64950;SDS011;51482;47.014;7.652;2024-03-08T02:04:47;10.47;;;7.87;;
64950;SDS011;51482;47.014;7.652;2024-03-08T02:07:13;15.47;;;8.57;;
64950;SDS011;51482;47.014;7.652;2024-03-08T02:09:38;15.47;;;8.03;;
64950;SDS011;51482;47.014;7.652;2024-03-08T02:12:04;11.73;;;8.77;;
64950;SDS011;51482;47.014;7.652;2024-03-08T02:14:30;20.50;;;9.43;;
64950;SDS011;51482;47.014;7.652;2024-03-08T02:16:59;19.40;;;9.13;;
64950;SDS011;51482;47.014;7.652;2024-03-08T02:19:25;15.87;;;9.17;;
64950;SDS011;51482;47.014;7.652;2024-03-08T02:21:51;14.27;;;9.50;;
64950;SDS011;51482;47.014;7.652;2024-03-08T02:24:16;12.80;;;9.90;;
64950;SDS011;51482;47.014;7.652;2024-03-08T02:26:42;11.23;;;9.60;;
64950;SDS011;51482;47.014;7.652;2024-03-08T02:29:08;11.77;;;9.73;;
64950;SDS011;51482;47.014;7.652;2024-03-08T02:31:34;12.93;;;10.20;;
64950;SDS011;51482;47.014;7.652;2024-03-08T02:34:00;13.87;;;10.63;;
64950;SDS011;51482;47.014;7.652;2024-03-08T02:36:25;15.03;;;11.17;;
64950;SDS011;51482;47.014;7.652;2024-03-08T02:38:51;16.20;;;11.93;;
64950;SDS011;51482;47.014;7.652;2024-03-08T02:41:16;15.30;;;10.10;;
64950;SDS011;51482;47.014;7.652;2024-03-08T02:43:42;12.53;;;10.73;;
64950;SDS011;51482;47.014;7.652;2024-03-08T02:46:09;13.17;;;10.57;;
64950;SDS011;51482;47.014;7.652;2024-03-08T02:48:35;12.10;;;10.73;;
64950;SDS011;51482;47.014;7.652;2024-03-08T02:51:00;14.17;;;10.50;;
64950;SDS011;51482;47.014;7.652;2024-03-08T02:53:27;27.80;;;11.70;;
64950;SDS011;51482;47.014;7.652;2024-03-08T02:55:52;16.37;;;11.83;;
64950;SDS011;51482;47.014;7.652;2024-03-08T02:58:18;13.20;;;10.40;;
64950;SDS011;51482;47.014;7.652;2024-03-08T03:00:44;11.90;;;10.43;;
64950;SDS011;51482;47.014;7.652;2024-03-08T03:03:09;11.97;;;10.30;;
64950;SDS011;51482;47.014;7.652;2024-03-08T03:05:35;12.67;;;10.67;;
64950;SDS011;51482;47.014;7.652;2024-03-08T03:08:01;13.53;;;10.90;;
64950;SDS011;51482;47.014;7.652;2024-03-08T03:10:28;13.60;;;10.77;;
64950;SDS011;51482;47.014;7.652;2024-03-08T03:12:54;15.00;;;11.07;;
64950;SDS011;51482;47.014;7.652;2024-03-08T03:15:20;12.67;;;10.13;;
64950;SDS011;51482;47.014;7.652;2024-03-08T03:17:46;12.77;;;10.63;;
64950;SDS011;51482;47.014;7.652;2024-03-08T03:20:12;13.83;;;11.63;;
64950;SDS011;51482;47.014;7.652;2024-03-08T03:22:39;12.87;;;10.47;;
64950;SDS011;51482;47.014;7.652;2024-03-08T03:25:12;17.73;;;12.30;;
64950;SDS011;51482;47.014;7.652;2024-03-08T03:27:37;16.30;;;11.87;;
64950;SDS011;51482;47.014;7.652;2024-03-08T03:30:05;13.90;;;10.63;;
64950;SDS011;51482;47.014;7.652;2024-03-08T03:32:49;19.07;;;12.80;;
64950;SDS011;51482;47.014;7.652;2024-03-08T03:35:15;14.40;;;10.97;;
64950;SDS011;51482;47.014;7.652;2024-03-08T03:37:42;13.83;;;10.90;;
64950;SDS011;51482;47.014;7.652;2024-03-08T03:40:10;13.87;;;9.53;;
64950;SDS011;51482;47.014;7.652;2024-03-08T03:42:36;15.63;;;11.37;;
64950;SDS011;51482;47.014;7.652;2024-03-08T03:45:03;14.30;;;10.87;;
64950;SDS011;51482;47.014;7.652;2024-03-08T03:47:30;12.20;;;9.97;;
64950;SDS011;51482;47.014;7.652;2024-03-08T03:49:56;12.93;;;10.20;;
64950;SDS011;51482;47.014;7.652;2024-03-08T03:52:26;12.20;;;10.33;;
64950;SDS011;51482;47.014;7.652;2024-03-08T03:54:52;14.23;;;11.17;;
64950;SDS011;51482;47.014;7.652;2024-03-08T03:57:17;12.90;;;10.40;;
64950;SDS011;51482;47.014;7.652;2024-03-08T03:59:43;12.47;;;10.10;;
64950;SDS011;51482;47.014;7.652;2024-03-08T04:02:09;10.67;;;8.93;;
64950;SDS011;51482;47.014;7.652;2024-03-08T04:04:35;10.33;;;9.23;;
64950;SDS011;51482;47.014;7.652;2024-03-08T04:07:00;10.20;;;9.03;;
64950;SDS011;51482;47.014;7.652;2024-03-08T04:09:27;11.70;;;10.37;;
64950;SDS011;51482;47.014;7.652;2024-03-08T04:11:52;10.03;;;9.03;;
64950;SDS011;51482;47.014;7.652;2024-03-08T04:14:20;10.07;;;6.83;;
64950;SDS011;51482;47.014;7.652;2024-03-08T04:16:46;9.50;;;7.27;;
64950;SDS011;51482;47.014;7.652;2024-03-08T04:19:13;9.80;;;7.47;;
64950;SDS011;51482;47.014;7.652;2024-03-08T04:21:39;7.73;;;6.60;;
64950;SDS011;51482;47.014;7.652;2024-03-08T04:24:04;8.53;;;6.93;;
64950;SDS011;51482;47.014;7.652;2024-03-08T04:26:30;9.30;;;7.00;;
64950;SDS011;51482;47.014;7.652;2024-03-08T04:28:56;10.57;;;7.20;;
64950;SDS011;51482;47.014;7.652;2024-03-08T04:31:22;7.77;;;6.37;;
64950;SDS011;51482;47.014;7.652;2024-03-08T04:33:47;9.37;;;7.37;;
64950;SDS011;51482;47.014;7.652;2024-03-08T04:36:13;7.93;;;6.63;;
64950;SDS011;51482;47.014;7.652;2024-03-08T04:38:39;9.97;;;7.33;;
64950;SDS011;51482;47.014;7.652;2024-03-08T04:41:06;9.53;;;7.07;;
64950;SDS011;51482;47.014;7.652;2024-03-08T04:43:31;8.77;;;7.00;;
64950;SDS011;51482;47.014;7.652;2024-03-08T04:45:58;8.43;;;6.17;;
64950;SDS011;51482;47.014;7.652;2024-03-08T04:48:23;9.30;;;6.73;;
64950;SDS011;51482;47.014;7.652;2024-03-08T04:50:51;10.40;;;8.17;;
64950;SDS011;51482;47.014;7.652;2024-03-08T04:53:18;11.50;;;8.47;;
64950;SDS011;51482;47.014;7.652;2024-03-08T04:55:44;12.30;;;8.97;;
64950;SDS011;51482;47.014;7.652;2024-03-08T04:58:10;9.43;;;8.43;;
64950;SDS011;51482;47.014;7.652;2024-03-08T05:00:35;10.63;;;8.30;;
64950;SDS011;51482;47.014;7.652;2024-03-08T05:03:01;11.70;;;9.57;;
64950;SDS011;51482;47.014;7.652;2024-03-08T05:05:26;11.13;;;8.00;;
64950;SDS011;51482;47.014;7.652;2024-03-08T05:07:54;10.13;;;8.40;;
64950;SDS011;51482;47.014;7.652;2024-03-08T05:10:19;10.57;;;7.63;;
64950;SDS011;51482;47.014;7.652;2024-03-08T05:12:45;9.70;;;7.90;;
64950;SDS011;51482;47.014;7.652;2024-03-08T05:15:11;9.10;;;8.10;;
64950;SDS011;51482;47.014;7.652;2024-03-08T05:17:36;8.60;;;7.63;;
64950;SDS011;51482;47.014;7.652;2024-03-08T05:20:02;9.00;;;7.97;;
64950;SDS011;51482;47.014;7.652;2024-03-08T05:22:29;9.00;;;8.10;;
64950;SDS011;51482;47.014;7.652;2024-03-08T05:24:54;8.93;;;8.00;;
64950;SDS011;51482;47.014;7.652;2024-03-08T05:27:20;8.07;;;7.13;;
64950;SDS011;51482;47.014;7.652;2024-03-08T05:29:46;8.90;;;7.50;;
64950;SDS011;51482;47.014;7.652;2024-03-08T05:32:11;8.80;;;7.30;;
64950;SDS011;51482;47.014;7.652;2024-03-08T05:34:37;8.00;;;7.20;;
64950;SDS011;51482;47.014;7.652;2024-03-08T05:37:03;8.63;;;7.73;;
64950;SDS011;51482;47.014;7.652;2024-03-08T05:39:29;11.33;;;8.03;;
64950;SDS011;51482;47.014;7.652;2024-03-08T05:41:54;8.13;;;7.27;;
64950;SDS011;51482;47.014;7.652;2024-03-08T05:44:20;9.73;;;7.77;;
64950;SDS011;51482;47.014;7.652;2024-03-08T05:46:46;8.67;;;7.73;;
64950;SDS011;51482;47.014;7.652;2024-03-08T05:49:12;8.87;;;7.27;;
64950;SDS011;51482;47.014;7.652;2024-03-08T05:51:38;8.37;;;6.83;;
64950;SDS011;51482;47.014;7.652;2024-03-08T05:54:05;7.57;;;6.57;;
64950;SDS011;51482;47.014;7.652;2024-03-08T05:56:33;8.00;;;7.20;;
64950;SDS011;51482;47.014;7.652;2024-03-08T05:59:00;9.70;;;7.50;;
64950;SDS011;51482;47.014;7.652;2024-03-08T06:01:26;11.33;;;8.13;;
64950;SDS011;51482;47.014;7.652;2024-03-08T06:03:53;8.47;;;6.93;;
64950;SDS011;51482;47.014;7.652;2024-03-08T06:06:21;7.90;;;7.10;;
64950;SDS011;51482;47.014;7.652;2024-03-08T06:08:47;9.07;;;6.83;;
64950;SDS011;51482;47.014;7.652;2024-03-08T06:11:14;8.13;;;7.30;;
64950;SDS011;51482;47.014;7.652;2024-03-08T06:13:42;9.03;;;7.87;;
64950;SDS011;51482;47.014;7.652;2024-03-08T06:16:08;7.33;;;6.63;;
64950;SDS011;51482;47.014;7.652;2024-03-08T06:18:34;9.77;;;6.87;;
64950;SDS011;51482;47.014;7.652;2024-03-08T06:21:03;7.57;;;6.80;;
64950;SDS011;51482;47.014;7.652;2024-03-08T06:23:38;8.77;;;6.30;;
64950;SDS011;51482;47.014;7.652;2024-03-08T06:26:04;9.20;;;7.47;;
64950;SDS011;51482;47.014;7.652;2024-03-08T06:28:30;10.70;;;7.50;;
64950;SDS011;51482;47.014;7.652;2024-03-08T06:30:57;9.63;;;8.13;;
64950;SDS011;51482;47.014;7.652;2024-03-08T06:33:23;15.03;;;9.37;;
64950;SDS011;51482;47.014;7.652;2024-03-08T06:35:51;15.27;;;9.93;;
64950;SDS011;51482;47.014;7.652;2024-03-08T06:38:17;10.30;;;7.10;;
64950;SDS011;51482;47.014;7.652;2024-03-08T06:40:43;15.40;;;8.30;;
64950;SDS011;51482;47.014;7.652;2024-03-08T06:43:09;13.33;;;6.97;;
64950;SDS011;51482;47.014;7.652;2024-03-08T06:45:36;15.50;;;8.00;;
64950;SDS011;51482;47.014;7.652;2024-03-08T06:48:03;10.20;;;7.50;;
64950;SDS011;51482;47.014;7.652;2024-03-08T06:50:28;11.43;;;7.73;;
64950;SDS011;51482;47.014;7.652;2024-03-08T06:52:54;11.17;;;8.40;;
64950;SDS011;51482;47.014;7.652;2024-03-08T06:55:20;10.43;;;7.77;;
64950;SDS011;51482;47.014;7.652;2024-03-08T06:57:46;10.90;;;8.57;;
64950;SDS011;51482;47.014;7.652;2024-03-08T07:00:11;11.83;;;8.53;;
64950;SDS011;51482;47.014;7.652;2024-03-08T07:02:43;13.83;;;9.47;;
64950;SDS011;51482;47.014;7.652;2024-03-08T07:05:13;12.10;;;8.93;;
64950;SDS011;51482;47.014;7.652;2024-03-08T07:07:39;12.63;;;9.57;;
64950;SDS011;51482;47.014;7.652;2024-03-08T07:10:06;13.57;;;11.23;;
64950;SDS011;51482;47.014;7.652;2024-03-08T07:12:36;10.20;;;8.80;;
64950;SDS011;51482;47.014;7.652;2024-03-08T07:15:02;14.13;;;9.60;;
64950;SDS011;51482;47.014;7.652;2024-03-08T07:17:30;11.60;;;9.20;;
64950;SDS011;51482;47.014;7.652;2024-03-08T07:19:55;12.97;;;9.63;;
64950;SDS011;51482;47.014;7.652;2024-03-08T07:22:24;13.10;;;10.20;;
64950;SDS011;51482;47.014;7.652;2024-03-08T07:24:49;14.97;;;9.67;;
64950;SDS011;51482;47.014;7.652;2024-03-08T07:27:41;14.63;;;10.60;;
64950;SDS011;51482;47.014;7.652;2024-03-08T07:30:07;13.47;;;10.10;;
64950;SDS011;51482;47.014;7.652;2024-03-08T07:32:35;14.17;;;10.63;;
64950;SDS011;51482;47.014;7.652;2024-03-08T07:35:01;12.93;;;10.23;;
64950;SDS011;51482;47.014;7.652;2024-03-08T07:37:28;15.13;;;10.60;;
64950;SDS011;51482;47.014;7.652;2024-03-08T07:39:54;12.60;;;8.97;;
64950;SDS011;51482;47.014;7.652;2024-03-08T07:42:19;11.63;;;9.40;;
64950;SDS011;51482;47.014;7.652;2024-03-08T07:44:46;19.43;;;12.37;;
64950;SDS011;51482;47.014;7.652;2024-03-08T07:47:13;19.10;;;12.30;;
64950;SDS011;51482;47.014;7.652;2024-03-08T07:49:39;14.97;;;10.57;;
64950;SDS011;51482;47.014;7.652;2024-03-08T07:52:04;14.20;;;10.97;;
64950;SDS011;51482;47.014;7.652;2024-03-08T07:54:32;14.90;;;11.70;;
64950;SDS011;51482;47.014;7.652;2024-03-08T07:56:58;15.60;;;11.87;;
64950;SDS011;51482;47.014;7.652;2024-03-08T07:59:24;17.20;;;12.70;;
64950;SDS011;51482;47.014;7.652;2024-03-08T08:01:49;15.17;;;11.60;;
64950;SDS011;51482;47.014;7.652;2024-03-08T08:04:15;16.70;;;12.30;;
64950;SDS011;51482;47.014;7.652;2024-03-08T08:06:43;15.97;;;12.63;;
64950;SDS011;51482;47.014;7.652;2024-03-08T08:09:08;16.60;;;12.73;;
64950;SDS011;51482;47.014;7.652;2024-03-08T08:11:40;16.93;;;12.37;;
64950;SDS011;51482;47.014;7.652;2024-03-08T08:14:08;20.53;;;14.77;;
64950;SDS011;51482;47.014;7.652;2024-03-08T08:16:34;16.83;;;11.93;;
64950;SDS011;51482;47.014;7.652;2024-03-08T08:19:01;16.73;;;12.70;;
64950;SDS011;51482;47.014;7.652;2024-03-08T08:21:32;15.67;;;10.77;;
64950;SDS011;51482;47.014;7.652;2024-03-08T08:24:04;14.47;;;10.23;;
64950;SDS011;51482;47.014;7.652;2024-03-08T08:26:30;11.60;;;9.30;;
64950;SDS011;51482;47.014;7.652;2024-03-08T08:28:55;13.27;;;9.30;;
64950;SDS011;51482;47.014;7.652;2024-03-08T08:31:21;12.60;;;9.10;;
64950;SDS011;51482;47.014;7.652;2024-03-08T08:33:46;11.93;;;9.00;;
64950;SDS011;51482;47.014;7.652;2024-03-08T08:36:14;12.17;;;7.67;;
64950;SDS011;51482;47.014;7.652;2024-03-08T08:38:39;9.07;;;6.47;;
64950;SDS011;51482;47.014;7.652;2024-03-08T08:41:07;8.97;;;5.93;;
64950;SDS011;51482;47.014;7.652;2024-03-08T08:43:34;9.93;;;7.63;;
64950;SDS011;51482;47.014;7.652;2024-03-08T08:46:00;11.17;;;8.10;;
64950;SDS011;51482;47.014;7.652;2024-03-08T08:48:26;11.17;;;7.43;;
64950;SDS011;51482;47.014;7.652;2024-03-08T08:50:53;9.07;;;7.23;;
64950;SDS011;51482;47.014;7.652;2024-03-08T08:53:18;9.07;;;7.00;;
64950;SDS011;51482;47.014;7.652;2024-03-08T08:55:44;10.97;;;7.63;;
64950;SDS011;51482;47.014;7.652;2024-03-08T08:58:10;10.70;;;6.97;;
64950;SDS011;51482;47.014;7.652;2024-03-08T09:00:36;9.30;;;6.90;;
64950;SDS011;51482;47.014;7.652;2024-03-08T09:03:02;11.87;;;7.47;;
64950;SDS011;51482;47.014;7.652;2024-03-08T09:05:28;9.33;;;7.43;;
64950;SDS011;51482;47.014;7.652;2024-03-08T09:07:53;9.43;;;7.37;;
64950;SDS011;51482;47.014;7.652;2024-03-08T09:10:19;11.20;;;8.37;;
64950;SDS011;51482;47.014;7.652;2024-03-08T09:12:46;9.93;;;7.63;;
64950;SDS011;51482;47.014;7.652;2024-03-08T09:15:12;11.07;;;8.20;;
64950;SDS011;51482;47.014;7.652;2024-03-08T09:17:38;9.17;;;7.77;;
64950;SDS011;51482;47.014;7.652;2024-03-08T09:20:05;10.23;;;8.30;;
64950;SDS011;51482;47.014;7.652;2024-03-08T09:22:31;8.73;;;7.33;;
64950;SDS011;51482;47.014;7.652;2024-03-08T09:24:57;11.10;;;7.47;;
64950;SDS011;51482;47.014;7.652;2024-03-08T09:27:22;11.17;;;8.90;;
64950;SDS011;51482;47.014;7.652;2024-03-08T09:29:49;10.47;;;8.57;;
64950;SDS011;51482;47.014;7.652;2024-03-08T09:32:14;11.37;;;7.97;;
64950;SDS011;51482;47.014;7.652;2024-03-08T09:34:40;9.30;;;8.13;;
64950;SDS011;51482;47.014;7.652;2024-03-08T09:37:05;12.23;;;8.90;;
64950;SDS011;51482;47.014;7.652;2024-03-08T09:39:31;12.03;;;9.70;;
64950;SDS011;51482;47.014;7.652;2024-03-08T09:41:58;11.20;;;8.97;;
64950;SDS011;51482;47.014;7.652;2024-03-08T09:44:23;15.83;;;9.70;;
64950;SDS011;51482;47.014;7.652;2024-03-08T09:46:50;12.20;;;9.03;;
64950;SDS011;51482;47.014;7.652;2024-03-08T09:49:19;12.03;;;8.73;;
64950;SDS011;51482;47.014;7.652;2024-03-08T09:51:44;12.23;;;9.40;;
64950;SDS011;51482;47.014;7.652;2024-03-08T09:54:11;12.40;;;7.40;;
64950;SDS011;51482;47.014;7.652;2024-03-08T09:56:37;12.90;;;9.63;;
64950;SDS011;51482;47.014;7.652;2024-03-08T09:59:09;12.83;;;8.97;;
64950;SDS011;51482;47.014;7.652;2024-03-08T10:01:53;11.43;;;9.00;;
64950;SDS011;51482;47.014;7.652;2024-03-08T10:04:21;14.40;;;10.13;;
64950;SDS011;51482;47.014;7.652;2024-03-08T10:06:47;10.67;;;8.50;;
64950;SDS011;51482;47.014;7.652;2024-03-08T10:09:13;12.17;;;9.10;;
64950;SDS011;51482;47.014;7.652;2024-03-08T10:11:42;12.27;;;8.80;;
64950;SDS011;51482;47.014;7.652;2024-03-08T10:14:08;12.10;;;8.57;;
64950;SDS011;51482;47.014;7.652;2024-03-08T10:16:34;11.37;;;8.10;;
64950;SDS011;51482;47.014;7.652;2024-03-08T10:19:00;13.20;;;8.53;;
64950;SDS011;51482;47.014;7.652;2024-03-08T10:21:25;10.27;;;8.20;;
64950;SDS011;51482;47.014;7.652;2024-03-08T10:23:52;10.17;;;8.13;;
64950;SDS011;51482;47.014;7.652;2024-03-08T10:26:17;10.83;;;8.03;;
64950;SDS011;51482;47.014;7.652;2024-03-08T10:28:46;12.73;;;9.20;;
64950;SDS011;51482;47.014;7.652;2024-03-08T10:31:15;12.40;;;8.80;;
64950;SDS011;51482;47.014;7.652;2024-03-08T10:33:41;12.07;;;8.47;;
64950;SDS011;51482;47.014;7.652;2024-03-08T10:36:08;11.43;;;8.20;;
64950;SDS011;51482;47.014;7.652;2024-03-08T10:38:41;12.37;;;8.97;;
64950;SDS011;51482;47.014;7.652;2024-03-08T10:41:11;13.27;;;9.50;;
64950;SDS011;51482;47.014;7.652;2024-03-08T10:44:23;12.17;;;8.80;;
64950;SDS011;51482;47.014;7.652;2024-03-08T10:49:12;11.90;;;8.87;;
64950;SDS011;51482;47.014;7.652;2024-03-08T10:51:42;12.63;;;8.53;;
64950;SDS011;51482;47.014;7.652;2024-03-08T10:54:09;12.47;;;8.83;;
64950;SDS011;51482;47.014;7.652;2024-03-08T10:56:36;12.73;;;9.50;;
64950;SDS011;51482;47.014;7.652;2024-03-08T10:59:02;12.73;;;9.07;;
64950;SDS011;51482;47.014;7.652;2024-03-08T11:01:29;14.67;;;9.13;;
64950;SDS011;51482;47.014;7.652;2024-03-08T11:03:55;12.97;;;9.07;;
64950;SDS011;51482;47.014;7.652;2024-03-08T11:06:23;14.30;;;9.67;;
64950;SDS011;51482;47.014;7.652;2024-03-08T11:09:01;11.90;;;8.67;;
64950;SDS011;51482;47.014;7.652;2024-03-08T11:11:32;12.07;;;8.73;;
64950;SDS011;51482;47.014;7.652;2024-03-08T11:14:02;11.30;;;8.27;;
64950;SDS011;51482;47.014;7.652;2024-03-08T11:18:59;10.07;;;7.53;;
64950;SDS011;51482;47.014;7.652;2024-03-08T11:21:35;12.03;;;8.30;;
64950;SDS011;51482;47.014;7.652;2024-03-08T11:24:11;11.83;;;7.70;;
64950;SDS011;51482;47.014;7.652;2024-03-08T11:26:38;11.57;;;8.83;;
64950;SDS011;51482;47.014;7.652;2024-03-08T11:32:08;12.97;;;8.50;;
64950;SDS011;51482;47.014;7.652;2024-03-08T11:34:35;10.67;;;7.40;;
64950;SDS011;51482;47.014;7.652;2024-03-08T11:37:03;12.17;;;9.30;;
64950;SDS011;51482;47.014;7.652;2024-03-08T11:39:30;12.47;;;7.97;;
64950;SDS011;51482;47.014;7.652;2024-03-08T11:41:56;12.60;;;9.00;;
64950;SDS011;51482;47.014;7.652;2024-03-08T11:44:26;15.37;;;9.27;;
64950;SDS011;51482;47.014;7.652;2024-03-08T11:46:52;13.80;;;9.57;;
64950;SDS011;51482;47.014;7.652;2024-03-08T11:49:18;15.60;;;9.70;;
64950;SDS011;51482;47.014;7.652;2024-03-08T11:51:44;12.37;;;8.60;;
64950;SDS011;51482;47.014;7.652;2024-03-08T11:54:11;13.17;;;8.93;;
64950;SDS011;51482;47.014;7.652;2024-03-08T11:56:40;12.30;;;8.80;;
64950;SDS011;51482;47.014;7.652;2024-03-08T11:59:10;12.10;;;8.37;;
64950;SDS011;51482;47.014;7.652;2024-03-08T12:01:37;11.50;;;7.70;;
64950;SDS011;51482;47.014;7.652;2024-03-08T12:04:04;12.97;;;8.87;;
64950;SDS011;51482;47.014;7.652;2024-03-08T12:06:37;13.03;;;8.93;;
64950;SDS011;51482;47.014;7.652;2024-03-08T12:09:04;14.63;;;9.67;;
64950;SDS011;51482;47.014;7.652;2024-03-08T12:11:34;12.67;;;8.30;;
64950;SDS011;51482;47.014;7.652;2024-03-08T12:14:01;12.40;;;8.27;;
64950;SDS011;51482;47.014;7.652;2024-03-08T12:16:27;10.63;;;7.87;;
64950;SDS011;51482;47.014;7.652;2024-03-08T12:18:52;14.00;;;9.43;;
64950;SDS011;51482;47.014;7.652;2024-03-08T12:21:18;13.13;;;9.27;;
64950;SDS011;51482;47.014;7.652;2024-03-08T12:24:10;13.60;;;9.10;;
64950;SDS011;51482;47.014;7.652;2024-03-08T12:26:36;11.63;;;8.73;;
64950;SDS011;51482;47.014;7.652;2024-03-08T12:29:15;11.60;;;7.83;;
64950;SDS011;51482;47.014;7.652;2024-03-08T12:31:53;12.23;;;8.17;;
64950;SDS011;51482;47.014;7.652;2024-03-08T12:34:20;11.43;;;8.00;;
64950;SDS011;51482;47.014;7.652;2024-03-08T12:36:46;12.43;;;8.90;;
64950;SDS011;51482;47.014;7.652;2024-03-08T12:39:15;13.87;;;9.17;;
64950;SDS011;51482;47.014;7.652;2024-03-08T12:41:42;12.90;;;8.53;;
64950;SDS011;51482;47.014;7.652;2024-03-08T12:44:08;12.47;;;8.47;;
64950;SDS011;51482;47.014;7.652;2024-03-08T12:46:36;11.77;;;8.30;;
64950;SDS011;51482;47.014;7.652;2024-03-08T12:49:05;15.43;;;9.57;;
64950;SDS011;51482;47.014;7.652;2024-03-08T12:51:37;12.43;;;8.87;;
64950;SDS011;51482;47.014;7.652;2024-03-08T12:54:04;13.77;;;9.40;;
64950;SDS011;51482;47.014;7.652;2024-03-08T12:56:32;11.53;;;8.87;;
64950;SDS011;51482;47.014;7.652;2024-03-08T12:59:01;12.33;;;9.40;;
64950;SDS011;51482;47.014;7.652;2024-03-08T13:01:28;12.67;;;9.30;;
64950;SDS011;51482;47.014;7.652;2024-03-08T13:03:54;13.03;;;9.20;;
64950;SDS011;51482;47.014;7.652;2024-03-08T13:06:20;13.00;;;9.97;;
64950;SDS011;51482;47.014;7.652;2024-03-08T13:08:49;11.93;;;8.77;;
64950;SDS011;51482;47.014;7.652;2024-03-08T13:11:18;13.60;;;8.70;;
64950;SDS011;51482;47.014;7.652;2024-03-08T13:13:45;13.97;;;9.20;;
64950;SDS011;51482;47.014;7.652;2024-03-08T13:16:11;13.07;;;9.43;;
64950;SDS011;51482;47.014;7.652;2024-03-08T13:18:39;13.53;;;9.93;;
64950;SDS011;51482;47.014;7.652;2024-03-08T13:21:07;12.47;;;9.17;;
64950;SDS011;51482;47.014;7.652;2024-03-08T13:23:34;10.53;;;8.33;;
64950;SDS011;51482;47.014;7.652;2024-03-08T13:26:04;12.70;;;9.23;;
64950;SDS011;51482;47.014;7.652;2024-03-08T13:28:34;17.57;;;9.37;;
64950;SDS011;51482;47.014;7.652;2024-03-08T13:31:05;12.73;;;9.33;;
64950;SDS011;51482;47.014;7.652;2024-03-08T13:33:31;14.53;;;9.73;;
64950;SDS011;51482;47.014;7.652;2024-03-08T13:36:01;13.00;;;8.70;;
64950;SDS011;51482;47.014;7.652;2024-03-08T13:38:31;11.57;;;9.30;;
64950;SDS011;51482;47.014;7.652;2024-03-08T13:40:58;12.60;;;9.70;;
64950;SDS011;51482;47.014;7.652;2024-03-08T13:43:24;15.73;;;10.50;;
64950;SDS011;51482;47.014;7.652;2024-03-08T13:45:49;14.20;;;10.20;;
64950;SDS011;51482;47.014;7.652;2024-03-08T13:48:15;14.73;;;9.50;;
64950;SDS011;51482;47.014;7.652;2024-03-08T13:50:41;13.83;;;9.47;;
64950;SDS011;51482;47.014;7.652;2024-03-08T13:53:06;16.23;;;10.90;;
64950;SDS011;51482;47.014;7.652;2024-03-08T13:55:32;16.00;;;9.73;;
64950;SDS011;51482;47.014;7.652;2024-03-08T13:57:58;15.27;;;9.90;;
64950;SDS011;51482;47.014;7.652;2024-03-08T14:00:25;15.17;;;10.63;;
64950;SDS011;51482;47.014;7.652;2024-03-08T14:02:53;14.23;;;10.27;;
64950;SDS011;51482;47.014;7.652;2024-03-08T14:05:19;18.77;;;11.03;;
64950;SDS011;51482;47.014;7.652;2024-03-08T14:07:45;15.23;;;10.63;;
64950;SDS011;51482;47.014;7.652;2024-03-08T14:10:13;16.83;;;10.07;;
64950;SDS011;51482;47.014;7.652;2024-03-08T14:12:40;16.17;;;10.60;;
64950;SDS011;51482;47.014;7.652;2024-03-08T14:15:07;15.83;;;10.87;;
64950;SDS011;51482;47.014;7.652;2024-03-08T14:17:34;16.80;;;11.77;;
64950;SDS011;51482;47.014;7.652;2024-03-08T14:20:00;16.93;;;11.37;;
64950;SDS011;51482;47.014;7.652;2024-03-08T14:22:26;16.67;;;10.87;;
64950;SDS011;51482;47.014;7.652;2024-03-08T14:24:52;15.70;;;11.13;;
64950;SDS011;51482;47.014;7.652;2024-03-08T14:27:17;17.20;;;11.77;;
64950;SDS011;51482;47.014;7.652;2024-03-08T14:29:43;17.23;;;11.40;;
64950;SDS011;51482;47.014;7.652;2024-03-08T14:32:09;18.07;;;11.27;;
64950;SDS011;51482;47.014;7.652;2024-03-08T14:34:35;16.90;;;12.03;;
64950;SDS011;51482;47.014;7.652;2024-03-08T14:37:01;17.70;;;12.23;;